Time;durP1;ratioP1;P1;durP2;ratioP2;P2;SDS_P1;SDS_P2;PMS_P1;PMS_P2;Temp;Humidity;BMP_temperature;BMP_pressure;BME280_temperature;BME280_humidity;BME280_pressure;Samples;Min_cycle;Max_cycle;Signal;HPM_P1;HPM_P2
2022/02/01 00:00:43;;;;;;;6.28;1.95;;;;;;;1.18;56.19;99159.06;1730831;81;21020;-57
2022/02/01 00:03:14;;;;;;;5.42;2.10;;;;;;;1.17;56.14;99152.23;1718410;81;21120;-57
2022/02/01 00:05:49;;;;;;;7.25;2.52;;;;;;;1.13;56.02;99167.13;1721388;81;21517;-57
2022/02/01 00:08:26;;;;;;;4.97;1.52;;;;;;;1.14;55.87;99167.95;1732454;81;21129;-57
2022/02/01 00:11:03;;;;;;;6.97;2.50;;;;;;;1.17;55.99;99176.38;1723831;81;21102;-57
2022/02/01 00:13:34;;;;;;;6.85;2.33;;;;;;;1.13;55.66;99172.31;1701245;82;21051;-57
2022/02/01 00:37:17;;;;;;;7.33;1.95;;;;;;;1.20;55.19;99173.60;1660363;85;21031;-58
2022/02/01 00:39:45;;;;;;;8.13;2.85;;;;;;;1.19;55.28;99171.92;1644413;86;21070;-57
2022/02/01 00:42:12;;;;;;;8.05;2.75;;;;;;;1.20;55.06;99171.02;1654256;85;23347;-58
2022/02/01 00:44:40;;;;;;;5.75;1.92;;;;;;;1.20;55.09;99172.30;1719603;82;21087;-58
2022/02/01 00:47:07;;;;;;;4.33;1.87;;;;;;;1.21;55.11;99177.87;1719026;82;21086;-59
2022/02/01 00:49:35;;;;;;;6.35;2.47;;;;;;;1.22;55.18;99179.52;1693953;82;21074;-58
2022/02/01 00:52:03;;;;;;;9.28;2.77;;;;;;;1.23;55.18;99185.08;1718399;82;21159;-58
2022/02/01 00:54:29;;;;;;;11.18;2.50;;;;;;;1.29;55.03;99183.86;1699369;82;21279;-57
2022/02/01 00:56:55;;;;;;;5.17;1.95;;;;;;;1.26;54.71;99187.49;1721867;81;21027;-57
2022/02/01 00:59:22;;;;;;;6.30;2.33;;;;;;;1.29;54.78;99182.12;1715923;82;21106;-57
2022/02/01 01:01:48;;;;;;;7.40;2.02;;;;;;;1.29;54.72;99182.12;1716161;82;21074;-57
2022/02/01 01:04:15;;;;;;;6.05;2.47;;;;;;;1.29;54.81;99185.16;1717606;82;21106;-58
2022/02/01 01:06:41;;;;;;;6.28;2.35;;;;;;;1.32;54.94;99188.87;1719625;82;21160;-58
2022/02/01 01:09:08;;;;;;;5.65;2.15;;;;;;;1.31;54.61;99189.78;1718497;82;21065;-58
2022/02/01 01:11:36;;;;;;;5.10;2.37;;;;;;;1.28;54.65;99188.70;1712828;82;21123;-58
2022/02/01 01:14:44;;;;;;;7.40;2.42;;;;;;;1.27;54.83;99193.03;1723632;82;21060;-58
2022/02/01 01:44:10;;;;;;;8.95;2.70;;;;;;;1.16;55.67;99196.75;1750152;80;21059;-60
2022/02/01 01:54:51;;;;;;;6.80;2.52;;;;;;;1.20;55.51;99206.47;1737680;81;21110;-57
2022/02/01 01:57:18;;;;;;;7.78;2.05;;;;;;;1.20;55.63;99203.88;1723729;81;21025;-58
2022/02/01 01:59:44;;;;;;;5.95;2.08;;;;;;;1.20;55.51;99207.29;1722622;80;21230;-58
2022/02/01 02:02:11;;;;;;;8.83;2.27;;;;;;;1.18;55.30;99214.33;1760839;80;21015;-58
2022/02/01 02:04:37;;;;;;;5.97;2.35;;;;;;;1.18;55.32;99213.03;1750803;80;21062;-58
2022/02/01 02:07:04;;;;;;;5.95;2.37;;;;;;;1.19;55.49;99207.38;1743015;81;21059;-58
2022/02/01 02:09:30;;;;;;;6.90;2.40;;;;;;;1.20;55.45;99217.66;1752703;80;21055;-59
2022/02/01 02:12:33;;;;;;;7.03;2.70;;;;;;;1.23;55.22;99207.11;1744712;81;21070;-57
2022/02/01 02:14:31;;;;;;;8.55;2.05;;;;;;;1.21;55.36;99210.27;1750491;80;21751;-57
2022/02/01 02:16:59;;;;;;;7.58;2.77;;;;;;;1.24;55.40;99208.76;1755539;80;21075;-58
2022/02/01 02:19:31;;;;;;;6.70;2.62;;;;;;;1.26;55.42;99214.70;1752330;80;21554;-58
2022/02/01 02:22:06;;;;;;;7.22;2.58;;;;;;;1.28;55.27;99210.25;1744942;80;21090;-57
2022/02/01 02:24:37;;;;;;;7.87;2.67;;;;;;;1.29;55.30;99218.85;1749730;80;21186;-57
2022/02/01 02:27:05;;;;;;;9.33;2.62;;;;;;;1.33;55.29;99218.20;1752579;80;21113;-58
2022/02/01 02:29:32;;;;;;;5.50;1.72;;;;;;;1.33;55.22;99216.47;1754756;80;21093;-58
2022/02/01 02:31:59;;;;;;;8.58;2.75;;;;;;;1.29;55.16;99217.12;1748342;80;21015;-58
2022/02/01 02:34:26;;;;;;;5.25;2.35;;;;;;;1.27;55.07;99221.53;1749967;80;21051;-58
2022/02/01 02:37:00;;;;;;;6.30;2.65;;;;;;;1.25;55.24;99221.27;1751382;80;21151;-57
2022/02/01 02:45:03;;;;;;;5.75;2.50;;;;;;;1.28;55.15;99234.88;1748994;80;21141;-58
2022/02/01 02:47:13;;;;;;;7.05;2.45;;;;;;;1.28;55.13;99243.95;1722745;81;21085;-58
2022/02/01 02:49:40;;;;;;;7.28;2.52;;;;;;;1.24;55.14;99240.33;1750473;80;21063;-57
2022/02/01 02:52:07;;;;;;;6.00;2.15;;;;;;;1.21;55.32;99241.36;1743548;80;21004;-58
2022/02/01 02:54:33;;;;;;;7.28;2.67;;;;;;;1.23;55.25;99242.56;1749813;79;21126;-58
2022/02/01 02:57:03;;;;;;;7.03;2.37;;;;;;;1.26;55.32;99258.76;1757845;80;21055;-57
2022/02/01 02:59:30;;;;;;;5.62;2.50;;;;;;;1.23;55.19;99251.16;1742736;80;21062;-57
2022/02/01 03:01:57;;;;;;;6.97;2.17;;;;;;;1.24;55.23;99247.63;1683996;83;21297;-57
2022/02/01 03:04:28;;;;;;;7.62;3.15;;;;;;;1.22;55.30;99248.19;1754168;80;21069;-58
2022/02/01 03:06:56;;;;;;;7.45;3.00;;;;;;;1.25;55.28;99250.61;1724769;81;21542;-59
2022/02/01 03:09:23;;;;;;;6.58;2.70;;;;;;;1.25;55.26;99258.38;1755040;81;21090;-58
2022/02/01 03:11:53;;;;;;;4.85;2.00;;;;;;;1.24;55.09;99251.52;1749317;80;21078;-58
2022/02/01 03:14:39;;;;;;;6.72;2.52;;;;;;;1.21;55.17;99254.31;1748228;80;21132;-58
2022/02/01 03:17:12;;;;;;;6.78;2.75;;;;;;;1.20;55.32;99252.64;1739340;81;21095;-58
2022/02/01 03:22:13;;;;;;;6.42;2.40;;;;;;;1.15;55.44;99266.80;1752581;80;21058;-57
2022/02/01 03:24:39;;;;;;;5.70;1.85;;;;;;;1.08;55.80;99263.73;1748164;80;21364;-57
2022/02/01 03:27:06;;;;;;;5.35;2.40;;;;;;;1.05;55.99;99270.39;1751727;80;21090;-57
2022/02/01 03:29:33;;;;;;;6.30;2.77;;;;;;;1.07;56.09;99271.95;1754338;80;21039;-57
2022/02/01 03:32:00;;;;;;;8.93;2.77;;;;;;;1.09;56.10;99277.05;1732887;80;21464;-58
2022/02/01 03:34:27;;;;;;;6.55;2.58;;;;;;;1.11;56.18;99279.11;1753476;80;21063;-59
2022/02/01 03:36:54;;;;;;;6.10;2.12;;;;;;;1.09;56.30;99283.08;1751152;80;21047;-58
2022/02/01 03:39:20;;;;;;;6.65;3.10;;;;;;;1.06;56.27;99272.89;1750698;80;21158;-58
2022/02/01 03:41:47;;;;;;;7.47;3.17;;;;;;;1.03;56.47;99280.84;1751703;80;21115;-59
2022/02/01 03:44:13;;;;;;;9.88;3.58;;;;;;;0.99;56.53;99288.87;1749426;80;21043;-58
2022/02/01 03:46:51;;;;;;;7.50;2.47;;;;;;;0.94;56.68;99281.35;1752036;80;21075;-58
2022/02/01 03:49:11;;;;;;;9.13;3.27;;;;;;;0.88;56.83;99277.37;1749704;80;21083;-58
2022/02/01 03:51:37;;;;;;;9.48;2.80;;;;;;;0.87;56.99;99278.28;1723493;81;21046;-58
2022/02/01 03:54:04;;;;;;;11.15;2.87;;;;;;;0.87;57.09;99273.58;1744010;81;21031;-58
2022/02/01 03:56:31;;;;;;;6.60;2.77;;;;;;;0.86;57.09;99276.64;1665707;83;21099;-58
2022/02/01 03:58:57;;;;;;;8.78;3.10;;;;;;;0.83;57.22;99277.28;1743453;80;21087;-59
2022/02/01 04:01:23;;;;;;;10.60;2.65;;;;;;;0.79;57.38;99279.21;1751240;80;21141;-62
2022/02/01 04:03:50;;;;;;;7.20;2.92;;;;;;;0.79;57.53;99279.66;1747714;80;21123;-63
2022/02/01 04:08:12;;;;;;;6.90;2.72;;;;;;;0.70;57.54;99283.61;1789670;77;22711;-62
2022/02/01 04:12:33;;;;;;;7.30;2.83;;;;;;;0.69;57.63;99298.76;1776753;78;22577;-63
2022/02/01 04:15:01;;;;;;;7.30;2.83;;;;;;;0.68;57.40;99300.52;1745832;79;21118;-59
2022/02/01 04:17:28;;;;;;;8.13;3.02;;;;;;;0.72;57.41;99299.88;1720526;81;21168;-62
2022/02/01 04:19:54;;;;;;;9.93;3.25;;;;;;;0.74;57.25;99305.83;1685654;82;21117;-59
2022/02/01 04:22:21;;;;;;;10.78;3.08;;;;;;;0.66;57.28;99311.43;1684150;81;21041;-58
2022/02/01 04:24:47;;;;;;;7.58;3.22;;;;;;;0.66;57.28;99311.43;1704333;81;21294;-58
2022/02/01 04:27:32;;;;;;;6.62;2.20;;;;;;;0.64;57.34;99309.83;1689606;82;22020;-59
2022/02/01 04:30:06;;;;;;;7.37;3.67;;;;;;;0.65;57.33;99305.86;1687760;83;21588;-58
2022/02/01 04:32:39;;;;;;;8.15;2.95;;;;;;;0.63;57.36;99308.19;1704533;81;21037;-57
2022/02/01 04:35:09;;;;;;;9.33;3.40;;;;;;;0.61;57.30;99307.44;1703436;82;21295;-58
2022/02/01 04:37:35;;;;;;;9.40;3.50;;;;;;;0.56;57.30;99310.28;1684285;83;21069;-58
2022/02/01 04:40:04;;;;;;;7.10;3.37;;;;;;;0.50;57.47;99317.91;1684597;82;21073;-58
2022/02/01 04:42:35;;;;;;;8.55;3.47;;;;;;;0.47;57.67;99319.40;1680979;83;21095;-57
2022/02/01 04:44:59;;;;;;;10.82;4.25;;;;;;;0.45;57.69;99323.80;1682589;83;21129;-58
2022/02/01 04:47:32;;;;;;;8.18;3.52;;;;;;;0.46;57.71;99315.13;1694429;83;21133;-58
2022/02/01 04:49:59;;;;;;;10.85;3.67;;;;;;;0.46;57.71;99315.13;1700696;82;21102;-57
2022/02/01 04:52:26;;;;;;;11.50;3.85;;;;;;;0.46;57.61;99321.60;1696341;82;21590;-57
2022/02/01 04:54:53;;;;;;;8.58;4.00;;;;;;;0.43;57.65;99330.83;1678304;82;22277;-57
2022/02/01 04:57:19;;;;;;;7.33;3.12;;;;;;;0.40;57.73;99330.16;1701172;82;21761;-59
2022/02/01 04:59:46;;;;;;;7.40;2.70;;;;;;;0.40;57.76;99325.81;1683508;83;21567;-57
2022/02/01 05:02:13;;;;;;;8.08;3.30;;;;;;;0.35;57.87;99324.80;1695277;82;22242;-56
2022/02/01 05:04:40;;;;;;;7.53;3.25;;;;;;;0.34;57.87;99329.58;1705403;82;21736;-56
2022/02/01 05:07:07;;;;;;;9.03;3.42;;;;;;;0.28;58.00;99335.08;1695988;82;22148;-57
2022/02/01 05:09:33;;;;;;;9.88;3.60;;;;;;;0.28;58.11;99336.84;1697297;82;22276;-58
2022/02/01 05:12:04;;;;;;;8.90;3.02;;;;;;;0.30;58.25;99343.62;1667999;83;21518;-58
2022/02/01 05:14:30;;;;;;;12.13;4.20;;;;;;;0.31;58.12;99344.44;1690895;82;21527;-55
2022/02/01 05:16:59;;;;;;;9.55;4.12;;;;;;;0.34;58.02;99347.69;1698958;82;21067;-57
2022/02/01 05:21:57;;;;;;;9.98;3.15;;;;;;;0.38;57.85;99361.77;1692725;82;21529;-57
2022/02/01 05:24:24;;;;;;;7.87;3.52;;;;;;;0.38;57.90;99366.47;1688300;82;21036;-58
2022/02/01 05:26:54;;;;;;;14.18;4.10;;;;;;;0.38;57.96;99367.77;1693789;82;20955;-59
2022/02/01 05:29:19;;;;;;;13.62;4.45;;;;;;;0.38;57.85;99366.94;1697387;82;21069;-59
2022/02/01 05:31:51;;;;;;;10.28;3.77;;;;;;;0.38;57.84;99370.83;1698273;82;21094;-59
2022/02/01 05:34:19;;;;;;;6.12;2.33;;;;;;;0.38;57.79;99382.00;1675887;82;21073;-56
2022/02/01 05:36:46;;;;;;;10.75;3.62;;;;;;;0.35;57.84;99388.19;1728604;81;21050;-56
2022/02/01 05:39:17;;;;;;;11.05;3.92;;;;;;;0.35;57.89;99389.92;1714516;80;21039;-57
2022/02/01 05:41:44;;;;;;;8.78;3.60;;;;;;;0.35;57.94;99400.28;1725653;80;21082;-56
2022/02/01 05:44:11;;;;;;;11.65;3.72;;;;;;;0.34;57.87;99408.98;1716177;81;21151;-56
2022/02/01 05:46:39;;;;;;;8.05;3.55;;;;;;;0.33;57.88;99406.00;1717173;80;21951;-56
2022/02/01 05:49:05;;;;;;;14.07;4.28;;;;;;;0.32;57.74;99405.61;1692318;82;21078;-56
2022/02/01 05:51:32;;;;;;;17.62;4.10;;;;;;;0.32;57.71;99417.25;1694740;82;21090;-57
2022/02/01 05:53:59;;;;;;;9.23;3.52;;;;;;;0.26;57.66;99420.19;1692792;82;21022;-57
2022/02/01 05:56:26;;;;;;;13.13;4.28;;;;;;;0.20;57.86;99430.37;1723572;80;21160;-57
2022/02/01 05:58:52;;;;;;;9.95;4.28;;;;;;;0.18;57.86;99431.78;1696458;82;21026;-58
2022/02/01 06:01:19;;;;;;;11.75;4.33;;;;;;;0.18;57.81;99433.52;1677112;82;20991;-58
2022/02/01 06:03:45;;;;;;;7.62;3.40;;;;;;;0.18;57.81;99433.52;1729538;80;20916;-57
2022/02/01 06:06:12;;;;;;;9.43;3.72;;;;;;;0.17;57.98;99439.16;1731022;81;21107;-57
2022/02/01 06:08:40;;;;;;;8.40;3.80;;;;;;;0.16;57.78;99446.53;1719141;80;21067;-58
2022/02/01 06:11:06;;;;;;;8.10;3.85;;;;;;;0.15;57.94;99454.36;1725566;81;21047;-55
2022/02/01 06:13:36;;;;;;;9.00;3.65;;;;;;;0.16;57.94;99453.46;1701480;82;21055;-57
2022/02/01 06:16:01;;;;;;;7.80;3.33;;;;;;;0.16;57.94;99460.76;1692313;82;21164;-57
2022/02/01 06:18:28;;;;;;;11.00;4.08;;;;;;;0.17;57.97;99453.38;1676642;83;21098;-57
2022/02/01 06:20:55;;;;;;;9.83;4.50;;;;;;;0.16;57.96;99462.05;1695469;82;21140;-59
2022/02/01 06:23:22;;;;;;;10.18;3.55;;;;;;;0.16;57.96;99468.98;1721173;81;21075;-58
2022/02/01 06:25:50;;;;;;;8.50;3.67;;;;;;;0.18;57.90;99464.56;1722108;82;21520;-57
2022/02/01 06:28:18;;;;;;;12.65;4.12;;;;;;;0.18;57.93;99479.65;1730175;80;21054;-56
2022/02/01 06:30:45;;;;;;;11.08;3.10;;;;;;;0.22;57.91;99474.29;1729109;80;21122;-56
2022/02/01 06:33:12;;;;;;;15.28;4.53;;;;;;;0.21;57.82;99475.22;1690240;82;21143;-57
2022/02/01 06:35:39;;;;;;;8.95;4.40;;;;;;;0.23;57.84;99468.21;1694062;84;21055;-57
2022/02/01 06:38:05;;;;;;;7.28;3.50;;;;;;;0.30;57.92;99474.73;1694041;83;21122;-56
2022/02/01 06:40:32;;;;;;;8.10;3.65;;;;;;;0.34;57.62;99477.55;1727163;81;21052;-57
2022/02/01 06:42:58;;;;;;;10.35;3.98;;;;;;;0.39;57.51;99477.28;1690119;82;21081;-55
2022/02/01 06:45:27;;;;;;;6.35;3.20;;;;;;;0.41;57.33;99484.54;1726532;80;21220;-55
2022/02/01 06:47:55;;;;;;;19.32;4.37;;;;;;;0.42;57.36;99479.72;1731433;80;21055;-56
2022/02/01 06:50:22;;;;;;;9.65;4.67;;;;;;;0.47;57.44;99482.47;1729231;80;21066;-55
2022/02/01 06:52:56;;;;;;;8.10;3.42;;;;;;;0.50;57.00;99482.27;1729450;80;21102;-55
2022/02/01 06:55:32;;;;;;;10.45;4.22;;;;;;;0.53;56.97;99481.30;1730551;80;21110;-57
2022/02/01 06:57:50;;;;;;;10.82;3.70;;;;;;;0.53;56.97;99486.47;1733376;80;23289;-57
2022/02/01 07:00:16;;;;;;;11.57;4.40;;;;;;;0.55;56.90;99494.55;1740010;80;21636;-57
2022/02/01 07:02:43;;;;;;;9.53;3.80;;;;;;;0.58;56.82;99505.18;1731342;81;21056;-57
2022/02/01 07:05:09;;;;;;;8.15;3.75;;;;;;;0.59;56.68;99512.48;1691413;82;21071;-57
2022/02/01 07:07:36;;;;;;;9.48;4.10;;;;;;;0.58;56.47;99515.54;1723317;80;21050;-58
2022/02/01 07:10:03;;;;;;;10.28;4.62;;;;;;;0.57;56.68;99513.85;1730206;80;21084;-57
2022/02/01 07:12:30;;;;;;;13.40;5.05;;;;;;;0.55;56.61;99516.55;1717422;82;21031;-58
2022/02/01 07:14:56;;;;;;;8.85;4.25;;;;;;;0.59;56.61;99522.40;1740655;80;21656;-57
2022/02/01 07:17:23;;;;;;;13.35;4.17;;;;;;;0.66;56.35;99528.92;1719875;81;21521;-57
2022/02/01 07:19:49;;;;;;;10.03;4.00;;;;;;;0.64;56.34;99523.43;1734282;80;21664;-57
2022/02/01 07:22:15;;;;;;;8.05;4.05;;;;;;;0.68;56.46;99525.78;1735902;80;21047;-58
2022/02/01 07:24:56;;;;;;;15.95;4.70;;;;;;;0.73;56.29;99531.55;1705315;82;21026;-57
2022/02/01 07:27:22;;;;;;;11.20;4.58;;;;;;;0.80;56.14;99532.06;1695627;82;22235;-57
2022/02/01 07:29:38;;;;;;;10.40;3.92;;;;;;;0.83;56.12;99532.38;1678953;82;21069;-60
2022/02/01 07:32:06;;;;;;;6.92;3.95;;;;;;;0.87;55.80;99535.16;1739450;80;21085;-57
2022/02/01 07:34:33;;;;;;;11.53;4.28;;;;;;;0.87;55.68;99537.28;1743064;81;21148;-57
2022/02/01 07:37:00;;;;;;;13.83;4.72;;;;;;;0.86;55.67;99529.63;1741851;80;21129;-56
2022/02/01 07:39:26;;;;;;;15.75;5.50;;;;;;;0.85;55.81;99535.24;1728772;81;21138;-57
2022/02/01 07:41:53;;;;;;;8.98;4.75;;;;;;;0.85;55.86;99535.24;1699164;82;21058;-56
2022/02/01 07:44:19;;;;;;;7.75;3.92;;;;;;;0.92;55.74;99537.91;1742568;80;21075;-56
2022/02/01 07:46:46;;;;;;;11.05;4.95;;;;;;;0.93;55.56;99552.51;1717495;81;21373;-56
2022/02/01 07:49:17;;;;;;;10.23;4.35;;;;;;;0.95;55.49;99539.95;1733466;80;21075;-56
2022/02/01 07:51:41;;;;;;;11.00;4.60;;;;;;;0.95;55.38;99536.89;1719920;80;21444;-56
2022/02/01 07:54:08;;;;;;;14.45;4.92;;;;;;;0.94;55.39;99541.68;1740997;80;21076;-58
2022/02/01 07:56:34;;;;;;;15.80;5.05;;;;;;;0.97;55.38;99544.58;1724890;80;21060;-57
2022/02/01 07:59:01;;;;;;;15.43;4.50;;;;;;;0.99;55.23;99545.33;1721751;80;21209;-57
2022/02/01 08:01:27;;;;;;;13.90;4.85;;;;;;;1.02;55.16;99550.34;1710831;82;21569;-57
2022/02/01 08:03:54;;;;;;;10.23;5.55;;;;;;;1.04;55.12;99554.54;1705239;82;21742;-57
2022/02/01 08:06:20;;;;;;;11.90;4.35;;;;;;;1.08;55.03;99564.28;1740204;81;22459;-57
2022/02/01 08:08:47;;;;;;;13.62;4.35;;;;;;;1.09;55.24;99560.31;1726910;82;21552;-57
2022/02/01 08:11:16;;;;;;;9.55;4.60;;;;;;;1.19;55.22;99559.80;1701385;82;21155;-56
2022/02/01 08:14:37;;;;;;;16.00;4.78;;;;;;;1.23;54.84;99563.91;1702417;82;21375;-56
2022/02/01 08:19:05;;;;;;;12.65;4.60;;;;;;;1.26;54.45;99561.98;1733718;80;21064;-58
2022/02/01 08:21:28;;;;;;;17.57;3.67;;;;;;;1.28;54.53;99564.02;1725857;82;21058;-57
2022/02/01 08:23:55;;;;;;;9.23;4.20;;;;;;;1.27;54.44;99559.75;1741475;80;21531;-57
2022/02/01 08:26:21;;;;;;;10.93;4.33;;;;;;;1.26;54.27;99558.09;1739538;81;21006;-55
2022/02/01 08:28:48;;;;;;;10.85;4.58;;;;;;;1.26;54.35;99558.09;1696654;82;21108;-56
2022/02/01 08:31:16;;;;;;;11.03;4.67;;;;;;;1.29;54.29;99567.44;1678836;83;21015;-57
2022/02/01 08:33:42;;;;;;;11.30;4.00;;;;;;;1.31;54.13;99570.78;1737985;81;21050;-56
2022/02/01 08:36:09;;;;;;;12.25;4.87;;;;;;;1.32;54.02;99571.17;1740664;80;21111;-57
2022/02/01 08:38:35;;;;;;;10.28;4.92;;;;;;;1.29;53.81;99583.84;1717372;82;21110;-56
2022/02/01 08:41:02;;;;;;;13.78;5.65;;;;;;;1.26;53.97;99574.94;1741445;80;21122;-56
2022/02/01 08:43:31;;;;;;;9.43;4.50;;;;;;;1.27;53.87;99575.30;1700935;82;21077;-56
2022/02/01 08:45:57;;;;;;;10.58;4.78;;;;;;;1.29;54.13;99579.11;1701972;83;21049;-55
2022/02/01 08:48:23;;;;;;;10.00;4.50;;;;;;;1.35;54.10;99583.14;1701998;82;21811;-58
2022/02/01 08:50:50;;;;;;;10.23;4.80;;;;;;;1.42;54.07;99593.07;1668093;83;21031;-56
2022/02/01 08:53:25;;;;;;;12.73;5.10;;;;;;;1.48;53.72;99600.99;1693913;83;21111;-58
2022/02/01 08:58:23;;;;;;;10.05;4.75;;;;;;;1.47;53.47;99603.20;1692722;83;21083;-56
2022/02/01 09:00:50;;;;;;;10.90;4.58;;;;;;;1.50;53.43;99590.06;1693706;82;21076;-55
2022/02/01 09:03:18;;;;;;;14.65;5.40;;;;;;;1.53;53.51;99598.98;1674437;83;21642;-57
2022/02/01 09:05:48;;;;;;;7.60;4.12;;;;;;;1.52;53.21;99594.70;1696244;83;21094;-56
2022/02/01 09:08:15;;;;;;;10.70;4.10;;;;;;;1.57;53.55;99595.75;1693925;83;21129;-56
2022/02/01 09:10:42;;;;;;;9.65;4.37;;;;;;;1.62;53.37;99597.63;1691841;82;21047;-59
2022/02/01 09:13:08;;;;;;;20.52;5.75;;;;;;;1.65;53.52;99589.69;1675431;83;21075;-58
2022/02/01 09:15:35;;;;;;;15.83;5.97;;;;;;;1.71;53.55;99585.42;1694635;82;21107;-56
2022/02/01 09:18:02;;;;;;;10.28;4.55;;;;;;;1.79;53.38;99597.98;1701509;82;21059;-57
2022/02/01 09:20:29;;;;;;;7.90;3.87;;;;;;;1.82;52.65;99587.44;1696536;82;21141;-56
2022/02/01 09:22:56;;;;;;;9.13;4.85;;;;;;;1.79;52.72;99587.60;1699356;83;21054;-56
2022/02/01 09:25:22;;;;;;;9.78;4.95;;;;;;;1.80;52.63;99590.55;1697885;83;21202;-56
2022/02/01 09:27:49;;;;;;;12.80;4.83;;;;;;;1.77;52.82;99586.86;1701271;82;21095;-56
2022/02/01 09:30:18;;;;;;;12.07;5.28;;;;;;;1.79;52.84;99584.54;1702364;82;21149;-57
2022/02/01 09:32:45;;;;;;;10.23;4.95;;;;;;;1.75;52.71;99580.90;1697985;83;21105;-57
2022/02/01 09:35:13;;;;;;;12.30;4.28;;;;;;;1.78;52.80;99593.27;1701788;83;21126;-56
2022/02/01 09:37:41;;;;;;;9.23;4.42;;;;;;;1.73;52.47;99587.50;1699879;82;21278;-56
2022/02/01 09:40:09;;;;;;;10.72;3.70;;;;;;;1.73;52.49;99583.61;1697757;82;21057;-57
2022/02/01 09:42:39;;;;;;;11.53;4.87;;;;;;;1.72;52.69;99587.11;1696982;82;21133;-56
2022/02/01 09:45:08;;;;;;;11.40;4.60;;;;;;;1.75;52.81;99580.45;1664282;83;21132;-56
2022/02/01 09:47:39;;;;;;;13.43;4.70;;;;;;;1.81;52.72;99570.19;1695212;83;21099;-57
2022/02/01 09:50:07;;;;;;;14.45;4.95;;;;;;;1.87;52.72;99563.36;1696356;82;21131;-57
2022/02/01 09:52:34;;;;;;;8.95;5.08;;;;;;;1.92;52.58;99567.83;1701416;83;21114;-57
2022/02/01 09:55:02;;;;;;;13.85;4.97;;;;;;;2.00;52.30;99577.75;1690665;83;21067;-58
2022/02/01 09:57:30;;;;;;;14.10;4.85;;;;;;;2.01;52.29;99565.98;1669055;84;21119;-59
2022/02/01 10:00:00;;;;;;;9.13;4.37;;;;;;;2.04;52.03;99572.30;1694448;83;21078;-57
2022/02/01 10:02:36;;;;;;;9.65;4.42;;;;;;;2.08;52.02;99569.06;1695077;83;21125;-60
2022/02/01 10:05:04;;;;;;;;;;;;;;;2.15;51.44;99573.00;1701563;82;21123;-57
2022/02/01 10:07:30;;;;;;;9.25;4.15;;;;;;;2.14;51.75;99574.37;1692480;82;20509;-58
2022/02/01 10:10:00;;;;;;;8.83;3.98;;;;;;;2.12;51.98;99573.61;1694200;83;21004;-57
2022/02/01 10:12:32;;;;;;;10.10;4.67;;;;;;;2.17;52.20;99580.66;1696499;82;21094;-57
2022/02/01 10:15:07;;;;;;;7.80;3.87;;;;;;;2.25;51.62;99582.83;1705074;82;21137;-56
2022/02/01 10:17:44;;;;;;;9.80;4.65;;;;;;;2.25;51.48;99581.05;1704226;82;21156;-55
2022/02/01 10:20:09;;;;;;;11.55;5.35;;;;;;;2.22;51.37;99596.36;1702517;82;21078;-57
2022/02/01 10:22:36;;;;;;;8.68;4.37;;;;;;;2.17;51.14;99593.64;1709834;82;21121;-57
2022/02/01 10:25:08;;;;;;;16.57;5.03;;;;;;;2.15;51.51;99601.98;1706948;82;21154;-58
2022/02/01 10:27:38;;;;;;;10.18;4.35;;;;;;;2.15;51.49;99595.06;1680921;83;21051;-57
2022/02/01 10:32:55;;;;;;;12.07;5.17;;;;;;;2.14;51.55;99595.14;1688034;83;20987;-56
2022/02/01 10:38:05;;;;;;;8.87;4.13;;;;;;;2.15;51.43;99585.12;1708973;82;21063;-58
2022/02/01 10:40:41;;;;;;;9.03;5.00;;;;;;;2.15;51.43;99585.12;1705526;82;21524;-60
2022/02/01 10:43:20;;;;;;;9.50;4.67;;;;;;;2.18;51.52;99589.66;1709448;82;21123;-59
2022/02/01 10:45:47;;;;;;;9.80;4.90;;;;;;;2.25;51.18;99584.13;1681558;82;21349;-58
2022/02/01 10:48:24;;;;;;;10.18;4.83;;;;;;;2.25;51.49;99581.05;1681759;83;21095;-58
2022/02/01 10:51:14;;;;;;;11.80;4.65;;;;;;;2.29;51.20;99577.38;1706631;82;21113;-58
2022/02/01 10:53:41;;;;;;;13.40;5.65;;;;;;;2.32;51.35;99583.69;1662183;84;21490;-58
2022/02/01 10:56:12;;;;;;;8.30;4.30;;;;;;;2.34;51.18;99594.81;1681359;84;21089;-58
2022/02/01 10:58:38;;;;;;;8.48;4.33;;;;;;;2.38;51.04;99592.87;1685029;83;21089;-58
2022/02/01 11:01:06;;;;;;;8.95;4.80;;;;;;;2.40;50.93;99594.47;1691642;83;21802;-58
2022/02/01 11:03:37;;;;;;;8.53;4.30;;;;;;;2.42;51.22;99593.05;1661460;84;21550;-58
2022/02/01 11:06:04;;;;;;;7.83;3.92;;;;;;;2.51;51.45;99587.33;1710390;82;23319;-58
2022/02/01 11:08:31;;;;;;;8.98;4.17;;;;;;;2.63;50.99;99592.25;1713745;82;22411;-59
2022/02/01 11:11:03;;;;;;;9.65;4.10;;;;;;;2.66;50.14;99593.38;1704549;82;21093;-58
2022/02/01 11:13:43;;;;;;;7.87;3.25;;;;;;;2.66;49.57;99584.75;1699198;82;21678;-57
2022/02/01 11:16:20;;;;;;;8.30;4.22;;;;;;;2.60;48.49;99593.73;1693058;82;21045;-57
2022/02/01 11:19:00;;;;;;;8.40;4.25;;;;;;;2.54;49.01;99586.29;1694839;82;21209;-57
2022/02/01 11:21:28;;;;;;;6.78;2.95;;;;;;;2.54;48.79;99581.09;1715173;81;21091;-58
2022/02/01 11:23:59;;;;;;;7.80;3.22;;;;;;;2.54;48.24;99588.45;1730949;82;21034;-57
2022/02/01 11:26:50;;;;;;;7.67;3.30;;;;;;;2.55;48.51;99594.47;1732469;80;21051;-58
2022/02/01 11:31:57;;;;;;;8.48;3.27;;;;;;;2.54;48.31;99592.34;1726842;80;21126;-57
2022/02/01 11:34:39;;;;;;;9.20;3.80;;;;;;;2.50;47.68;99586.11;1701102;80;21148;-56
2022/02/01 11:37:10;;;;;;;8.45;3.37;;;;;;;2.46;47.69;99584.64;1714584;82;21202;-57
2022/02/01 11:39:53;;;;;;;10.28;3.90;;;;;;;2.41;48.29;99597.41;1727263;80;21137;-56
2022/02/01 11:42:22;;;;;;;7.70;2.92;;;;;;;2.40;48.68;99589.27;1669032;84;21172;-56
2022/02/01 11:45:07;;;;;;;6.95;3.10;;;;;;;2.41;48.59;99587.03;1696671;82;22005;-59
2022/02/01 11:47:38;;;;;;;6.25;2.87;;;;;;;2.44;47.66;99591.66;1714433;82;21048;-57
2022/02/01 11:50:13;;;;;;;7.12;3.33;;;;;;;2.35;47.62;99583.48;1723774;80;21006;-57
2022/02/01 11:52:51;;;;;;;8.58;3.62;;;;;;;2.30;48.11;99576.42;1692333;82;21203;-57
2022/02/01 11:55:18;;;;;;;8.83;4.15;;;;;;;2.23;48.49;99579.84;1686625;82;21098;-58
2022/02/01 11:57:48;;;;;;;7.30;4.40;;;;;;;2.26;48.77;99578.84;1691407;83;21159;-57
2022/02/01 12:00:19;;;;;;;8.13;3.45;;;;;;;2.30;49.12;99581.63;1720133;81;21099;-59
2022/02/01 12:02:50;;;;;;;5.97;3.10;;;;;;;2.39;48.95;99578.97;1688631;82;21015;-58
2022/02/01 12:05:28;;;;;;;6.85;3.70;;;;;;;2.41;49.20;99574.05;1693782;82;21100;-56
2022/02/01 12:08:15;;;;;;;9.10;3.65;;;;;;;2.49;48.86;99576.64;1730781;80;21031;-58
2022/02/01 12:10:50;;;;;;;10.08;3.85;;;;;;;2.49;48.62;99577.50;1734148;80;21154;-57
2022/02/01 12:13:21;;;;;;;8.28;3.80;;;;;;;2.52;48.63;99583.81;1734620;81;21094;-57
2022/02/01 12:15:50;;;;;;;8.38;3.98;;;;;;;2.55;48.58;99584.08;1727840;81;21044;-58
2022/02/01 12:18:34;;;;;;;7.35;3.65;;;;;;;2.54;48.19;99591.48;1734751;81;21046;-58
2022/02/01 12:21:48;;;;;;;6.92;3.52;;;;;;;2.52;48.20;99585.11;1731457;81;21056;-56
2022/02/01 12:24:15;;;;;;;7.72;3.20;;;;;;;2.54;48.30;99581.09;1730001;80;21132;-56
2022/02/01 12:26:42;;;;;;;12.00;3.95;;;;;;;2.53;48.43;99582.05;1729116;81;21365;-56
2022/02/01 12:29:11;;;;;;;6.78;3.15;;;;;;;2.57;48.39;99589.56;1732570;80;21504;-56
2022/02/01 12:31:40;;;;;;;8.05;3.98;;;;;;;2.58;48.34;99587.80;1695097;82;21078;-57
2022/02/01 12:34:13;;;;;;;9.23;3.45;;;;;;;2.62;47.83;99588.44;1695029;84;21352;-57
2022/02/01 12:36:49;;;;;;;7.10;3.92;;;;;;;2.61;47.82;99588.92;1699816;82;21205;-58
2022/02/01 12:39:23;;;;;;;11.68;4.45;;;;;;;2.57;47.79;99596.50;1693688;83;22518;-57
2022/02/01 12:42:03;;;;;;;7.87;3.65;;;;;;;2.53;47.47;99595.85;1667415;83;21059;-57
2022/02/01 12:47:04;;;;;;;8.45;3.98;;;;;;;2.56;47.48;99598.27;1695189;82;21071;-57
2022/02/01 12:49:39;;;;;;;7.05;2.83;;;;;;;2.57;47.19;99599.09;1669835;82;21115;-57
2022/02/01 12:52:28;;;;;;;12.65;4.08;;;;;;;2.54;47.42;99592.78;1668240;83;21127;-57
2022/02/01 12:55:02;;;;;;;9.85;4.22;;;;;;;2.53;47.50;99596.33;1692080;83;21535;-57
2022/02/01 12:57:31;;;;;;;8.65;3.70;;;;;;;2.53;47.42;99606.71;1688882;82;21045;-56
2022/02/01 13:00:00;;;;;;;11.40;4.62;;;;;;;2.53;47.49;99600.22;1693832;82;21728;-58
2022/02/01 13:02:29;;;;;;;10.58;4.62;;;;;;;2.51;47.54;99607.27;1692026;82;21157;-57
2022/02/01 13:05:02;;;;;;;8.73;3.70;;;;;;;2.54;47.49;99610.96;1670326;83;21124;-57
2022/02/01 13:07:59;;;;;;;7.15;3.50;;;;;;;2.55;46.92;99602.26;1669955;82;21086;-56
2022/02/01 13:21:23;;;;;;;8.53;3.67;;;;;;;2.81;45.73;99614.14;1734090;80;21093;-55
2022/02/01 13:23:57;;;;;;;7.72;3.42;;;;;;;2.71;45.31;99616.01;1740443;80;21562;-55
2022/02/01 13:26:30;;;;;;;5.83;2.85;;;;;;;2.62;45.83;99616.55;1720455;81;21112;-56